Latest Weather Observations for Wagga Wagga

IDN60801

Issued at 11:04 am EDT Sunday 1 February 2015 (issued every 30 minutes, with the page automatically refreshed every 10 minutes)

About weather observations | Map of weather stations | Latest weather observations for NSW | Other Formats
Station Details ID: 072150 Name: WAGGA WAGGA AMO Lat: -35.16 Lon: 147.46 Height: 212.0 m
Data from the previous 72 hours. | See also: Recent months at Wagga Wagga
Date/Time
EDT
Temp
°C
App
Temp
°C
Dew
Point
Rel
Hum
%
Delta-T
°C
Wind Press
QNH
hPa
Press
MSL
hPa
Rain
since 9 am
mm
Dir
 
Spd
km/h
Gust
km/h
Spd
kts
Gust
kts
01/10:30am 21.5 20.5 10.9 51 5.9 NNE 7 13 4 7 1010.0 1008.9 0.0
01/10:00am 20.2 19.2 11.0 55 5.1 NW 7 11 4 6 1010.0 1008.9 0.0
01/09:30am 19.5 18.5 10.3 55 5.0 SW 6 9 3 5 1009.9 1008.8 0.0
01/09:00am 18.1 18.3 10.5 61 4.1 CALM 0 7 0 4 1009.8 1008.7 0.0
01/08:30am 16.7 16.9 10.6 67 3.3 CALM 0 0 0 0 1009.6 1008.5 0.0
01/07:30am 14.4 13.0 9.4 72 2.6 ESE 7 7 4 4 1008.8 1007.8 0.0
01/07:00am 13.6 12.2 9.6 77 2.1 ESE 7 9 4 5 1008.6 1007.6 0.0
01/06:30am 12.9 11.5 9.4 79 1.8 N 7 7 4 4 1008.6 1007.6 0.0
01/05:30am 13.0 11.7 9.1 77 2.0 ESE 6 6 3 3 1008.0 1007.0 0.0
01/05:00am 13.8 12.3 9.1 73 2.4 E 7 7 4 4 1007.9 1006.9 0.0
01/04:30am 14.3 12.5 9.3 72 2.6 E 9 11 5 6 1007.8 1006.8 0.0
01/04:00am 14.6 12.0 9.2 70 2.8 ESE 13 13 7 7 1007.7 1006.7 0.0
01/03:30am 14.4 13.0 9.4 72 2.6 NE 7 9 4 5 1007.8 1006.8 0.0
01/03:00am 15.2 13.7 9.0 66 3.2 NE 7 7 4 4 1007.9 1006.9 0.0
01/02:30am 15.0 13.7 9.2 68 3.0 NNE 6 7 3 4 1008.0 1007.0 0.0
01/02:00am 16.3 16.1 9.2 63 3.7 CALM 0 0 0 0 1008.0 1007.0 0.0
01/01:30am 16.3 15.8 9.2 63 3.7 ESE 2 7 1 4 1008.1 1007.1 0.0
01/01:00am 16.7 15.2 9.1 61 4.0 SW 7 7 4 4 1008.2 1007.2 0.0
01/12:30am 16.8 15.3 9.2 61 4.0 SW 7 11 4 6 1008.5 1007.5 0.0
01/12:00am 17.5 15.6 8.9 57 4.5 SW 9 11 5 6 1008.6 1007.6 0.0
 
Date/Time
EDT
Temp
°C
App
Temp
°C
Dew
Point
Rel
Hum
%
Delta-T
°C
Wind Press
QNH
hPa
Press
MSL
hPa
Rain
since 9 am
mm
Dir
 
Spd
km/h
Gust
km/h
Spd
kts
Gust
kts
31/11:30pm 18.0 17.8 8.9 55 4.8 CALM 0 6 0 3 1008.5 1007.5 0.0
31/11:00pm 18.5 16.3 7.9 50 5.5 S 9 13 5 7 1008.6 1007.6 0.0
31/10:30pm 22.0 19.4 6.2 36 8.1 S 9 13 5 7 1008.7 1007.7 0.0
31/09:30pm 20.3 17.4 6.6 41 7.0 S 11 11 6 6 1008.0 1007.0 0.0
31/09:00pm 21.0 18.1 6.3 38 7.5 S 11 11 6 6 1007.8 1006.8 0.0
31/08:30pm 21.8 19.2 6.2 36 8.0 SSW 9 11 5 6 1007.6 1006.6 0.0
31/08:00pm 24.0 19.6 4.5 28 9.8 SW 17 19 9 10 1007.3 1006.3 0.0
31/07:30pm 25.6 19.9 3.0 23 11.2 SSW 22 30 12 16 1006.9 1005.8 0.0
31/07:00pm 26.2 20.9 2.8 22 11.6 SW 20 30 11 16 1006.6 1005.5 0.0
31/06:30pm 26.4 20.8 3.2 22 11.5 SW 22 30 12 16 1006.4 1005.3 0.0
31/05:30pm 26.8 20.5 3.9 23 11.6 SW 26 39 14 21 1006.4 1005.3 0.0
31/05:00pm 26.2 20.1 4.7 25 11.0 SW 26 37 14 20 1006.6 1005.5 0.0
31/04:30pm 27.3 21.3 5.2 24 11.5 WSW 26 37 14 20 1006.8 1005.7 0.0
31/04:00pm 26.7 20.8 4.1 23 11.5 WSW 24 33 13 18 1006.9 1005.8 0.0
31/03:30pm 26.5 21.6 4.3 24 11.3 WSW 19 30 10 16 1006.9 1005.8 0.0
31/03:00pm 26.2 20.8 4.7 25 11.0 SW 22 37 12 20 1007.1 1006.1 0.0
31/02:30pm 25.8 20.6 5.3 26 10.6 SW 22 30 12 16 1007.4 1006.4 0.0
31/02:00pm 25.5 21.5 6.5 29 10.0 SW 17 30 9 16 1007.8 1006.8 0.0
31/01:30pm 24.0 20.8 6.9 33 9.0 SW 13 24 7 13 1007.9 1006.9 0.0
31/01:00pm 23.3 19.2 6.3 33 8.8 WNW 17 26 9 14 1008.1 1007.1 0.0
31/12:30pm 23.6 20.3 6.5 33 8.9 SSW 13 20 7 11 1008.2 1007.2 0.0
31/12:00pm 21.7 19.2 6.5 37 7.8 W 9 17 5 9 1008.5 1007.5 0.0
31/11:30am 22.3 19.8 6.4 35 8.2 WNW 9 15 5 8 1008.9 1007.9 0.0
31/11:00am 21.1 18.4 5.6 36 7.8 SSW 9 26 5 14 1009.3 1008.2 0.0
31/10:30am 19.8 18.1 7.4 44 6.4 WNW 6 13 3 7 1009.5 1008.4 0.0
31/10:00am 18.9 16.5 7.2 46 6.0 S 9 15 5 8 1009.7 1008.6 0.0
31/09:30am 18.3 16.1 7.8 50 5.4 SE 9 15 5 8 1009.9 1008.8 0.0
31/09:00am 17.7 15.2 8.2 53 4.9 SSE 11 17 6 9 1010.0 1008.9 0.0
31/08:30am 15.9 15.0 7.6 58 4.2 SW 2 7 1 4 1009.7 1008.6 0.0
31/08:00am 14.4 13.9 7.8 64 3.3 CALM 0 7 0 4 1009.5 1008.4 0.0
31/07:30am 13.9 13.6 8.6 70 2.7 CALM 0 0 0 0 1009.1 1008.1 0.0
31/07:00am 12.0 11.4 7.5 74 2.2 CALM 0 0 0 0 1008.8 1007.8 0.0
31/06:30am 10.8 10.1 6.8 76 1.9 CALM 0 0 0 0 1008.5 1007.5 0.0
31/06:00am 10.8 9.4 7.3 79 1.7 N 4 6 2 3 1008.4 1007.4 0.0
31/05:30am 10.6 8.7 6.6 76 1.9 E 6 7 3 4 1008.2 1007.2 0.0
31/05:00am 11.7 11.1 7.2 74 2.2 CALM 0 0 0 0 1008.2 1007.2 0.0
31/04:30am 13.2 12.4 6.6 64 3.2 CALM 0 0 0 0 1008.1 1007.1 0.0
31/04:00am 13.0 12.2 6.4 64 3.2 CALM 0 0 0 0 1008.1 1007.1 0.0
31/03:30am 13.0 12.3 7.1 67 2.9 CALM 0 0 0 0 1008.2 1007.2 0.0
31/03:00am 13.5 12.4 7.0 65 3.2 SSW 2 7 1 4 1008.2 1007.2 0.0
31/02:30am 14.5 12.0 6.6 59 3.9 SE 9 11 5 6 1008.3 1007.3 0.0
31/02:00am 14.9 13.7 6.6 57 4.1 ESE 2 7 1 4 1008.5 1007.5 0.0
31/01:30am 14.7 12.7 7.3 61 3.7 E 7 11 4 6 1008.6 1007.6 0.0
31/01:00am 14.6 11.5 7.2 61 3.7 SSE 13 15 7 8 1008.8 1007.8 0.0
31/12:30am 15.4 11.4 6.5 55 4.4 SSE 17 19 9 10 1008.8 1007.8 0.0
31/12:00am 15.8 11.8 6.5 54 4.6 SSE 17 22 9 12 1008.7 1007.7 0.0
 
Date/Time
EDT
Temp
°C
App
Temp
°C
Dew
Point
Rel
Hum
%
Delta-T
°C
Wind Press
QNH
hPa
Press
MSL
hPa
Rain
since 9 am
mm
Dir
 
Spd
km/h
Gust
km/h
Spd
kts
Gust
kts
30/11:30pm 16.3 12.3 6.7 53 4.8 SSE 17 20 9 11 1008.8 1007.8 0.0
30/11:00pm 17.5 12.4 6.0 46 5.7 SSE 22 28 12 15 1008.9 1007.9 0.0
30/10:30pm 18.3 12.8 5.8 44 6.2 SSE 24 32 13 17 1008.9 1007.9 0.0
30/10:00pm 18.1 13.6 6.3 46 5.9 SSE 19 26 10 14 1009.0 1008.0 0.0
30/09:30pm 19.1 13.9 5.6 41 6.7 SSE 22 30 12 16 1008.8 1007.8 0.0
30/09:00pm 18.8 14.1 6.0 43 6.4 S 20 26 11 14 1008.6 1007.6 0.0
30/08:30pm 19.3 14.1 5.7 41 6.8 S 22 30 12 16 1008.3 1007.3 0.0
30/08:00pm 20.5 15.9 5.5 37 7.5 S 19 24 10 13 1008.3 1007.3 0.0
30/07:30pm 21.7 15.2 4.9 33 8.4 S 28 37 15 20 1008.0 1007.0 0.0
30/07:00pm 23.4 17.7 4.7 29 9.4 SSW 24 32 13 17 1007.6 1006.6 0.0
30/06:30pm 23.7 17.6 4.9 29 9.5 SSW 26 32 14 17 1007.5 1006.5 0.0
30/06:00pm 23.7 17.9 4.3 28 9.7 SSW 24 32 13 17 1007.4 1006.4 0.0
30/05:30pm 24.4 18.5 4.0 26 10.2 SW 24 35 13 19 1007.5 1006.5 0.0
30/05:00pm 24.8 19.6 3.4 25 10.6 SSW 20 32 11 17 1007.6 1006.6 0.0
30/04:30pm 24.6 19.4 3.4 25 10.5 SSW 20 33 11 18 1008.0 1007.0 0.0
30/04:00pm 23.8 18.5 2.9 25 10.2 SW 20 30 11 16 1008.1 1007.1 0.0
30/03:30pm 24.4 19.4 3.7 26 10.3 SSW 19 28 10 15 1008.5 1007.5 0.0
30/03:00pm 24.1 19.4 3.4 26 10.2 SW 17 30 9 16 1008.9 1007.9 0.0
30/02:30pm 22.4 18.4 2.9 27 9.4 S 13 26 7 14 1009.4 1008.3 0.0
30/02:00pm 22.7 18.4 3.5 28 9.4 SSW 15 30 8 16 1009.8 1008.7 0.0
30/01:30pm 23.2 17.2 3.4 27 9.7 SW 24 35 13 19 1010.2 1009.1 0.0
30/01:00pm 22.5 16.8 3.1 28 9.4 SW 22 33 12 18 1010.4 1009.3 0.0
30/12:30pm 21.7 17.0 3.3 30 8.9 S 17 37 9 20 1010.6 1009.5 0.0
30/12:00pm 21.3 17.6 4.5 33 8.3 S 13 24 7 13 1011.0 1009.9 0.0
30/11:30am 20.0 16.3 4.4 35 7.6 SSE 13 28 7 15 1011.5 1010.5 0.0
30/11:00am 19.0 15.4 4.9 39 6.9 SSE 13 30 7 16 1011.8 1010.8 0.0
30/10:30am 18.8 14.7 4.6 39 6.9 SSE 15 28 8 15 1012.1 1011.1 0.0
30/10:00am 17.8 13.3 4.2 40 6.5 SSE 17 24 9 13 1012.3 1011.3 0.0
30/09:30am 17.6 13.6 4.8 42 6.2 S 15 26 8 14 1012.5 1011.5 0.0
30/09:00am 16.7 12.2 4.3 43 5.9 S 17 24 9 13 1012.7 1011.7 0.0
30/08:30am 15.8 11.4 4.6 47 5.3 S 17 22 9 12 1012.6 1011.6 0.0
30/08:00am 14.7 10.7 5.0 52 4.6 S 15 19 8 10 1012.5 1011.5 0.0
30/07:30am 12.2 9.9 5.9 65 3.0 S 7 11 4 6 1012.1 1011.1 0.0
30/07:00am 9.7 6.2 5.4 74 2.0 SSE 13 15 7 8 1011.8 1010.8 0.0
30/06:30am 9.4 5.8 5.0 74 2.0 SSE 13 13 7 7 1011.6 1010.6 0.0
30/06:00am 10.5 6.9 5.1 69 2.5 SSE 13 13 7 7 1011.3 1010.3 0.0
30/05:30am 11.4 8.2 5.2 65 2.9 SE 11 13 6 7 1011.4 1010.4 0.0
30/05:00am 10.9 7.4 5.3 68 2.6 SSE 13 13 7 7 1011.3 1010.3 0.0
30/04:30am 11.9 8.7 5.0 62 3.2 SE 11 13 6 7 1011.4 1010.4 0.0
30/04:00am 12.2 9.0 5.1 62 3.3 SE 11 13 6 7 1011.5 1010.5 0.0
30/03:30am 12.8 9.6 4.9 58 3.7 SSE 11 13 6 7 1011.6 1010.6 0.0
30/03:00am 12.9 10.7 5.3 60 3.6 S 6 7 3 4 1011.8 1010.8 0.0
30/02:30am 13.7 10.1 5.0 55 4.1 SE 13 20 7 11 1012.0 1011.0 0.0
30/02:00am 14.2 9.8 4.6 52 4.5 SE 17 22 9 12 1012.2 1011.2 0.0
30/01:30am 14.7 8.9 4.5 50 4.8 SE 24 30 13 16 1012.3 1011.3 0.0
30/01:00am 15.0 9.2 4.3 48 5.0 SE 24 30 13 16 1012.3 1011.3 0.0
30/12:30am 15.7 9.5 4.2 46 5.4 SE 26 33 14 18 1012.5 1011.5 0.0
30/12:00am 15.9 9.3 4.2 45 5.5 SSE 28 32 15 17 1012.4 1011.4 0.0
 
Date/Time
EDT
Temp
°C
App
Temp
°C
Dew
Point
Rel
Hum
%
Delta-T
°C
Wind Press
QNH
hPa
Press
MSL
hPa
Rain
since 9 am
mm
Dir
 
Spd
km/h
Gust
km/h
Spd
kts
Gust
kts
29/11:30pm 16.3 11.3 4.5 45 5.6 SE 20 28 11 15 1012.7 1011.7 0.0
29/11:00pm 17.1 11.7 4.6 43 6.0 SE 22 32 12 17 1012.8 1011.8 0.0
29/10:30pm 17.9 12.5 4.4 41 6.5 SE 22 30 12 16 1012.8 1011.8 0.0
29/10:00pm 18.3 13.0 5.2 42 6.4 SE 22 30 12 16 1012.6 1011.6 0.0
29/09:30pm 18.9 14.0 5.3 41 6.7 SSE 20 30 11 16 1012.3 1011.3 0.0
29/09:00pm 19.6 14.1 4.1 36 7.5 S 22 30 12 16 1011.9 1010.9 0.0
29/08:30pm 20.4 14.5 3.9 33 8.0 S 24 35 13 19 1011.6 1010.6 0.0
29/08:00pm 21.7 16.1 3.6 30 8.8 S 22 32 12 17 1011.2 1010.2 0.0
29/07:30pm 23.1 16.5 2.2 25 10.0 S 26 33 14 18 1010.9 1009.8 0.0
29/07:00pm 23.3 17.8 0.8 22 10.5 SSW 19 26 10 14 1010.7 1009.6 0.0
29/06:30pm 24.5 18.1 0.7 21 11.2 SSW 24 32 13 17 1010.5 1009.4 0.0
29/06:00pm 25.0 19.6 1.3 21 11.3 SSW 19 33 10 18 1010.6 1009.5 0.0
29/05:30pm 25.5 19.9 0.9 20 11.7 S 20 33 11 18 1010.6 1009.5 0.0
29/05:00pm 25.4 19.7 0.3 19 11.8 SSW 20 33 11 18 1010.8 1009.7 0.0
29/04:30pm 25.6 21.1 2.2 22 11.4 SW 15 28 8 15 1011.2 1010.2 0.0
29/04:00pm 24.8 19.3 0.5 20 11.4 S 19 32 10 17 1011.5 1010.5 0.0
29/03:30pm 23.6 19.4 1.4 23 10.5 S 13 26 7 14 1011.9 1010.9 0.0
29/03:00pm 24.7 19.6 1.0 21 11.2 SW 17 33 9 18 1012.3 1011.3 0.0
29/02:30pm 23.5 19.5 2.9 26 10.0 S 13 28 7 15 1012.8 1011.8 0.0
29/02:00pm 24.3 19.2 4.1 27 10.1 SSE 20 32 11 17 1013.2 1012.2 0.0
29/01:30pm 23.1 17.7 2.5 26 9.9 SSE 20 32 11 17 1013.4 1012.4 0.0
29/01:00pm 22.7 17.6 3.1 27 9.5 SSE 19 37 10 20 1014.0 1013.0 0.0
29/12:30pm 22.0 17.0 3.5 29 9.0 SSE 19 30 10 16 1014.6 1013.5 0.0
29/12:00pm 22.2 17.1 3.2 28 9.2 S 19 35 10 19 1015.0 1013.9 0.0
29/11:30am 20.6 16.7 3.2 31 8.3 SSE 13 26 7 14 1015.4 1014.4 0.0

Other Formats:

Comma delimited format used in spreadsheet applications
http://www.bom.gov.au/fwo/IDN60801/IDN60801.94910.axf

JavaScript Object Notation format (JSON) in row-major order
http://www.bom.gov.au/fwo/IDN60801/IDN60801.94910.json